Agadez, Niger
Current Conditions -  °F | °C
As of 2:45 AM on Thursday 27 Nov 2014 (Local Time) from KQAZ Reporting Station
Clear Clear  
Wind Chill: 64°   Ceiling: Unl
Heat Index: 64°   Visibility: 6mi
Dew Point: 34°   Wind: 3mph
Humidity: 32%   Direction: 90°E
Pressure: 29.94"   Gusts: NA
Location:  17°N, 7.98°E
Report Text: KQAZ 270145Z AUTO 09003KT 9999 CLR 18/01 A2994 RMK CDP03565 CLR
Loading
Personal Weather Stations






























Interactive Weather Map New forecast layout! Learn more

10-Day Weather Forecast

Advertisements
Track Severe Weather on mobile